Perulack, Pennsylvania
Current Conditions -  °F | °C
As of 10:53 PM on Sunday 23 Nov 2014 (Local Time) from KAOO Reporting Station
Moderate Rain Moderate Rain  
Wind Chill: 42°   Ceiling: 1400
Heat Index: 48°   Visibility: 5mi
Dew Point: 46°   Wind: 16mph
Humidity: 93%   Direction: 150°SSE
Pressure: 29.78"   Gusts: 23mph
Location:  40.3617°N, 77.6745°W
Report Text: KAOO 240353Z AUTO 15014G20KT 5SM RA BR OVC014 09/08 A2978 RMK AO2 PRESFR SLP085 P0006 T00890078
Loading
Personal Weather Stations






























Interactive Weather Map New forecast layout! Learn more

10-Day Weather Forecast

Advertisements
Track Severe Weather on mobile